createdAt,value
2016-10-30T00:00:52.185Z,11.17
2016-10-30T00:01:52.843Z,11.11
2016-10-30T00:02:53.503Z,11.15
2016-10-30T00:03:54.176Z,11.05
2016-10-30T00:04:54.831Z,11.07
2016-10-30T00:05:55.489Z,11.11
2016-10-30T00:06:56.158Z,11.11
2016-10-30T00:07:56.815Z,11.1
2016-10-30T00:08:57.486Z,11.11
2016-10-30T00:09:58.153Z,11.08
2016-10-30T00:10:58.813Z,11.11
2016-10-30T00:11:59.480Z,11.05
2016-10-30T00:13:00.149Z,11.05
2016-10-30T00:14:00.809Z,10.97
2016-10-30T00:15:01.476Z,11.04
2016-10-30T00:16:02.142Z,11.08
2016-10-30T00:17:02.806Z,11.08
2016-10-30T00:18:03.476Z,11.05
2016-10-30T00:19:04.147Z,11.02
2016-10-30T00:20:04.804Z,10.99
2016-10-30T00:21:05.458Z,10.96
2016-10-30T00:22:06.120Z,11.07
2016-10-30T00:23:06.793Z,10.92
2016-10-30T00:24:07.473Z,10.99
2016-10-30T00:25:08.135Z,11
2016-10-30T00:26:08.798Z,10.93
2016-10-30T00:27:09.464Z,11.02
2016-10-30T00:28:10.128Z,10.9
2016-10-30T00:29:10.789Z,10.99
2016-10-30T00:30:11.455Z,10.89
2016-10-30T00:31:12.121Z,10.92
2016-10-30T00:32:12.785Z,10.9
2016-10-30T00:33:13.457Z,10.9
2016-10-30T00:34:14.136Z,10.9
2016-10-30T00:35:14.800Z,10.87
2016-10-30T00:36:15.477Z,10.89
2016-10-30T00:37:16.141Z,10.96
2016-10-30T00:38:16.817Z,10.96
2016-10-30T00:39:17.490Z,10.92
2016-10-30T00:40:18.162Z,10.86
2016-10-30T00:41:18.829Z,10.78
2016-10-30T00:42:19.512Z,10.86
2016-10-30T00:43:20.175Z,10.89
2016-10-30T00:44:20.851Z,10.89
2016-10-30T00:45:21.524Z,10.86
2016-10-30T00:46:22.198Z,10.86
2016-10-30T00:47:22.868Z,10.96
2016-10-30T00:48:23.540Z,10.87
2016-10-30T00:49:24.212Z,10.86
2016-10-30T00:50:24.891Z,10.84
2016-10-30T00:51:25.553Z,10.79
2016-10-30T00:52:26.240Z,10.81
2016-10-30T00:53:26.915Z,10.81
2016-10-30T00:54:27.578Z,10.84
2016-10-30T00:55:28.241Z,10.76
2016-10-30T00:56:28.917Z,10.82
2016-10-30T00:57:29.587Z,10.75
2016-10-30T00:58:30.259Z,10.79
2016-10-30T00:59:30.933Z,10.74
2016-10-30T01:00:31.610Z,10.75
2016-10-30T01:01:32.281Z,10.81
2016-10-30T01:02:32.948Z,10.74
2016-10-30T01:03:33.617Z,10.64
2016-10-30T01:04:34.287Z,10.69
2016-10-30T01:05:34.982Z,10.72
2016-10-30T01:06:35.645Z,10.64
2016-10-30T01:07:36.314Z,10.68
2016-10-30T01:08:36.990Z,10.74
2016-10-30T01:09:37.650Z,10.69
2016-10-30T01:10:38.315Z,10.72
2016-10-30T01:11:38.988Z,10.71
2016-10-30T01:12:39.671Z,10.75
2016-10-30T01:13:40.333Z,10.72
2016-10-30T01:14:41.002Z,10.63
2016-10-30T01:15:41.668Z,10.71
2016-10-30T01:16:42.327Z,10.74
2016-10-30T01:17:42.993Z,10.69
2016-10-30T01:18:43.662Z,10.74
2016-10-30T01:19:44.334Z,10.64
2016-10-30T01:20:44.993Z,10.72
2016-10-30T01:21:45.657Z,10.63
2016-10-30T01:22:46.325Z,10.71
2016-10-30T01:23:47.018Z,10.64
2016-10-30T01:24:47.703Z,10.69
2016-10-30T01:25:48.391Z,10.63
2016-10-30T01:26:49.057Z,10.67
2016-10-30T01:27:49.717Z,10.69
2016-10-30T01:28:50.385Z,10.79
2016-10-30T01:29:51.051Z,10.63
2016-10-30T01:30:51.715Z,10.69
2016-10-30T01:31:52.393Z,10.69
2016-10-30T01:32:53.062Z,10.67
2016-10-30T01:33:53.741Z,10.68
2016-10-30T01:34:54.404Z,10.64
2016-10-30T01:35:55.067Z,10.64
2016-10-30T01:36:55.732Z,10.59
2016-10-30T01:37:56.392Z,10.6
2016-10-30T01:38:57.059Z,10.57
2016-10-30T01:39:57.726Z,10.71
2016-10-30T01:40:58.402Z,10.61
2016-10-30T01:41:59.093Z,10.6
2016-10-30T01:42:59.761Z,10.71
2016-10-30T01:44:00.451Z,10.74
2016-10-30T01:45:01.109Z,10.64
2016-10-30T01:46:01.771Z,10.71
2016-10-30T01:47:02.454Z,10.67
2016-10-30T01:48:03.120Z,10.72
2016-10-30T01:49:03.781Z,10.67
2016-10-30T01:50:04.444Z,10.68
2016-10-30T01:51:05.113Z,10.69
2016-10-30T01:52:05.782Z,10.6
2016-10-30T01:53:06.439Z,10.75
2016-10-30T01:54:07.105Z,10.75
2016-10-30T01:55:07.787Z,10.72
2016-10-30T01:56:08.454Z,10.78
2016-10-30T01:57:09.124Z,10.75
2016-10-30T01:58:09.797Z,10.82
2016-10-30T01:59:10.468Z,10.76
2016-10-30T02:00:11.125Z,10.81
2016-10-30T02:01:11.781Z,10.76
2016-10-30T02:02:12.451Z,10.79
2016-10-30T02:03:13.121Z,10.82
2016-10-30T02:04:13.784Z,10.82
2016-10-30T02:05:14.454Z,10.84
2016-10-30T02:06:15.124Z,10.86
2016-10-30T02:07:15.788Z,10.81
2016-10-30T02:08:16.445Z,10.89
2016-10-30T02:09:17.113Z,10.9
2016-10-30T02:10:17.781Z,10.92
2016-10-30T02:11:18.452Z,10.87
2016-10-30T02:12:19.121Z,10.96
2016-10-30T02:13:19.782Z,10.86
2016-10-30T02:14:20.445Z,10.94
2016-10-30T02:15:21.115Z,10.93
2016-10-30T02:16:21.780Z,10.87
2016-10-30T02:17:22.450Z,10.94
2016-10-30T02:18:23.138Z,10.96
2016-10-30T02:19:24.300Z,10.94
2016-10-30T02:20:24.967Z,10.89
2016-10-30T02:21:25.640Z,10.93
2016-10-30T02:22:26.308Z,10.87
2016-10-30T02:23:26.991Z,11
2016-10-30T02:24:27.673Z,10.96
2016-10-30T02:25:28.331Z,11
2016-10-30T02:26:29.031Z,10.99
2016-10-30T02:27:29.692Z,10.99
2016-10-30T02:28:30.355Z,10.96
2016-10-30T02:29:31.018Z,10.97
2016-10-30T02:30:31.713Z,10.96
2016-10-30T02:31:32.372Z,11.02
2016-10-30T02:32:33.039Z,11.05
2016-10-30T02:33:33.712Z,11.04
2016-10-30T02:34:34.388Z,11
2016-10-30T02:35:35.052Z,11.04
2016-10-30T02:36:35.718Z,11
2016-10-30T02:37:36.403Z,11.04
2016-10-30T02:38:37.056Z,11.02
2016-10-30T02:39:37.718Z,10.96
2016-10-30T02:40:38.447Z,11.05
2016-10-30T02:41:39.114Z,11
2016-10-30T02:42:39.773Z,11.1
2016-10-30T02:43:40.441Z,11
2016-10-30T02:44:41.105Z,11.02
2016-10-30T02:45:41.776Z,11.05
2016-10-30T02:46:42.447Z,11.08
2016-10-30T02:47:43.123Z,11.11
2016-10-30T02:48:43.783Z,11.07
2016-10-30T02:49:44.442Z,11.04
2016-10-30T02:50:45.104Z,10.97
2016-10-30T02:51:45.769Z,11.04
2016-10-30T02:52:46.435Z,11
2016-10-30T02:53:47.103Z,11.07
2016-10-30T02:54:47.780Z,10.97
2016-10-30T02:55:48.449Z,11
2016-10-30T02:56:49.121Z,10.97
2016-10-30T02:57:49.798Z,11.07
2016-10-30T02:58:50.465Z,10.94
2016-10-30T02:59:51.137Z,10.92
2016-10-30T03:00:51.816Z,10.97
2016-10-30T03:01:52.480Z,10.99
2016-10-30T03:02:53.135Z,10.99
2016-10-30T03:03:53.793Z,11
2016-10-30T03:04:54.450Z,10.97
2016-10-30T03:05:55.119Z,10.96
2016-10-30T03:06:55.802Z,10.86
2016-10-30T03:07:56.463Z,10.89
2016-10-30T03:08:57.129Z,10.93
2016-10-30T03:09:57.783Z,10.9
2016-10-30T03:10:58.454Z,10.87
2016-10-30T03:11:59.119Z,10.92
2016-10-30T03:12:59.789Z,10.81
2016-10-30T03:14:00.449Z,10.93
2016-10-30T03:15:01.114Z,10.96
2016-10-30T03:16:01.773Z,10.89
2016-10-30T03:17:02.458Z,10.84
2016-10-30T03:18:03.119Z,10.92
2016-10-30T03:19:03.776Z,10.96
2016-10-30T03:20:04.446Z,10.9
2016-10-30T03:21:05.111Z,10.79
2016-10-30T03:22:05.782Z,10.87
2016-10-30T03:23:06.474Z,10.86
2016-10-30T03:24:07.158Z,10.87
2016-10-30T03:25:07.839Z,10.93
2016-10-30T03:26:08.510Z,10.78
2016-10-30T03:27:09.174Z,10.84
2016-10-30T03:28:09.834Z,10.87
2016-10-30T03:29:10.498Z,10.84
2016-10-30T03:30:11.161Z,10.93
2016-10-30T03:31:11.834Z,10.89
2016-10-30T03:32:12.496Z,10.9
2016-10-30T03:33:13.161Z,10.89
2016-10-30T03:34:13.849Z,10.84
2016-10-30T03:35:14.506Z,10.81
2016-10-30T03:36:15.167Z,10.84
2016-10-30T03:37:15.839Z,10.9
2016-10-30T03:38:16.497Z,10.82
2016-10-30T03:39:17.165Z,10.82
2016-10-30T03:40:17.838Z,10.78
2016-10-30T03:41:18.499Z,10.79
2016-10-30T03:42:19.166Z,10.79
2016-10-30T03:43:19.827Z,10.81
2016-10-30T03:44:20.495Z,10.82
2016-10-30T03:45:21.155Z,10.78
2016-10-30T03:46:21.815Z,10.82
2016-10-30T03:47:22.497Z,10.76
2016-10-30T03:48:23.174Z,10.79
2016-10-30T03:49:23.842Z,10.87
2016-10-30T03:50:24.497Z,10.78
2016-10-30T03:51:25.158Z,10.78
2016-10-30T03:52:25.818Z,10.79
2016-10-30T03:53:26.485Z,10.78
2016-10-30T03:54:27.152Z,10.76
2016-10-30T03:55:27.832Z,10.79
2016-10-30T03:56:28.504Z,10.78
2016-10-30T03:57:29.171Z,10.79
2016-10-30T03:58:29.837Z,10.84
2016-10-30T03:59:30.495Z,10.74
2016-10-30T04:00:31.159Z,10.81
2016-10-30T04:01:31.827Z,10.78
2016-10-30T04:02:32.495Z,10.76
2016-10-30T04:03:33.159Z,10.75
2016-10-30T04:04:33.827Z,10.71
2016-10-30T04:05:34.500Z,10.78
2016-10-30T04:06:35.157Z,10.76
2016-10-30T04:07:35.813Z,10.78
2016-10-30T04:08:36.490Z,10.78
2016-10-30T04:09:37.160Z,10.75
2016-10-30T04:10:37.830Z,10.81
2016-10-30T04:11:38.489Z,10.78
2016-10-30T04:12:39.156Z,10.78
2016-10-30T04:13:39.828Z,10.78
2016-10-30T04:14:40.500Z,10.78
2016-10-30T04:15:41.171Z,10.78
2016-10-30T04:16:41.855Z,10.72
2016-10-30T04:17:42.531Z,10.87
2016-10-30T04:18:43.190Z,10.78
2016-10-30T04:19:43.870Z,10.75
2016-10-30T04:20:44.545Z,10.78
2016-10-30T04:21:45.225Z,10.79
2016-10-30T04:22:45.891Z,10.78
2016-10-30T04:23:46.561Z,10.81
2016-10-30T04:24:47.227Z,10.84
2016-10-30T04:25:47.905Z,10.81
2016-10-30T04:26:48.566Z,10.87
2016-10-30T04:27:49.230Z,10.81
2016-10-30T04:28:49.900Z,10.81
2016-10-30T04:29:50.569Z,10.79
2016-10-30T04:30:51.228Z,10.78
2016-10-30T04:31:51.895Z,10.82
2016-10-30T04:32:52.560Z,10.76
2016-10-30T04:33:53.223Z,10.76
2016-10-30T04:34:53.885Z,10.75
2016-10-30T04:35:54.558Z,10.72
2016-10-30T04:36:55.215Z,10.78
2016-10-30T04:37:55.876Z,10.79
2016-10-30T04:38:56.542Z,10.81
2016-10-30T04:39:57.206Z,10.81
2016-10-30T04:40:57.871Z,10.79
2016-10-30T04:41:58.543Z,10.75
2016-10-30T04:42:59.212Z,10.82
2016-10-30T04:43:59.906Z,10.75
2016-10-30T04:45:00.559Z,10.81
2016-10-30T04:46:01.233Z,10.75
2016-10-30T04:47:01.898Z,10.79
2016-10-30T04:48:02.568Z,10.81
2016-10-30T04:49:03.254Z,10.74
2016-10-30T04:50:03.920Z,10.71
2016-10-30T04:51:04.577Z,10.78
2016-10-30T04:52:05.240Z,10.75
2016-10-30T04:53:05.915Z,10.69
2016-10-30T04:54:06.593Z,10.76
2016-10-30T04:55:07.260Z,10.78
2016-10-30T04:56:07.934Z,10.76
2016-10-30T04:57:08.603Z,10.76
2016-10-30T04:58:09.265Z,10.69
2016-10-30T04:59:09.926Z,10.69
2016-10-30T05:00:10.595Z,10.72
2016-10-30T05:01:11.258Z,10.69
2016-10-30T05:02:11.918Z,10.68
2016-10-30T05:03:12.583Z,10.69
2016-10-30T05:04:13.244Z,10.63
2016-10-30T05:05:13.906Z,10.64
2016-10-30T05:06:14.566Z,10.68
2016-10-30T05:07:15.227Z,10.68
2016-10-30T05:08:15.904Z,10.68
2016-10-30T05:09:16.575Z,10.68
2016-10-30T05:10:17.249Z,10.67
2016-10-30T05:11:17.923Z,10.67
2016-10-30T05:12:18.588Z,10.68
2016-10-30T05:13:19.270Z,10.64
2016-10-30T05:14:19.940Z,10.79
2016-10-30T05:15:20.604Z,10.68
2016-10-30T05:16:21.278Z,10.69
2016-10-30T05:17:21.953Z,10.61
2016-10-30T05:18:22.619Z,10.69
2016-10-30T05:19:23.293Z,10.64
2016-10-30T05:20:23.966Z,10.69
2016-10-30T05:21:24.637Z,10.68
2016-10-30T05:22:25.312Z,10.64
2016-10-30T05:23:25.983Z,10.69
2016-10-30T05:24:26.710Z,10.71
2016-10-30T05:25:27.374Z,10.68
2016-10-30T05:26:28.035Z,10.64
2016-10-30T05:27:28.725Z,10.69
2016-10-30T05:28:29.404Z,10.71
2016-10-30T05:29:30.071Z,10.69
2016-10-30T05:30:30.741Z,10.72
2016-10-30T05:31:31.414Z,10.63
2016-10-30T05:32:32.082Z,10.61
2016-10-30T05:33:32.750Z,10.63
2016-10-30T05:34:33.431Z,10.61
2016-10-30T05:35:34.108Z,10.61
2016-10-30T05:36:34.776Z,10.64
2016-10-30T05:37:35.436Z,10.64
2016-10-30T05:38:36.119Z,10.6
2016-10-30T05:39:36.777Z,10.56
2016-10-30T05:40:37.440Z,10.64
2016-10-30T05:41:38.097Z,10.63
2016-10-30T05:42:38.763Z,10.56
2016-10-30T05:43:39.434Z,10.68
2016-10-30T05:44:40.098Z,10.63
2016-10-30T05:45:40.766Z,10.61
2016-10-30T05:46:41.438Z,10.68
2016-10-30T05:47:42.090Z,10.59
2016-10-30T05:48:42.752Z,10.67
2016-10-30T05:49:43.421Z,10.63
2016-10-30T05:50:44.079Z,10.68
2016-10-30T05:51:44.744Z,10.67
2016-10-30T05:52:45.409Z,10.6
2016-10-30T05:53:46.070Z,10.61
2016-10-30T05:54:46.736Z,10.67
2016-10-30T05:55:47.413Z,10.71
2016-10-30T05:56:48.094Z,10.68
2016-10-30T05:57:48.765Z,10.59
2016-10-30T05:58:49.424Z,10.71
2016-10-30T05:59:50.080Z,10.64
2016-10-30T06:00:50.743Z,10.64
2016-10-30T06:01:51.415Z,10.68
2016-10-30T06:02:52.071Z,10.71
2016-10-30T06:03:52.741Z,10.69
2016-10-30T06:04:53.403Z,10.72
2016-10-30T06:05:54.067Z,10.68
2016-10-30T06:06:54.745Z,10.64
2016-10-30T06:07:55.437Z,10.64
2016-10-30T06:08:56.103Z,10.69
2016-10-30T06:09:56.797Z,10.63
2016-10-30T06:10:57.469Z,10.64
2016-10-30T06:11:58.138Z,10.67
2016-10-30T06:12:58.810Z,10.69
2016-10-30T06:13:59.471Z,10.71
2016-10-30T06:15:00.142Z,10.59
2016-10-30T06:16:00.817Z,10.63
2016-10-30T06:17:01.488Z,10.63
2016-10-30T06:18:02.152Z,10.61
2016-10-30T06:19:02.830Z,10.64
2016-10-30T06:20:03.507Z,10.61
2016-10-30T06:21:04.180Z,10.63
2016-10-30T06:22:04.855Z,10.64
2016-10-30T06:23:05.520Z,10.67
2016-10-30T06:24:06.189Z,10.61
2016-10-30T06:25:06.868Z,10.61
2016-10-30T06:26:07.548Z,10.67
2016-10-30T06:27:08.219Z,10.6
2016-10-30T06:28:08.888Z,10.57
2016-10-30T06:29:09.558Z,10.67
2016-10-30T06:30:10.223Z,10.67
2016-10-30T06:31:10.897Z,10.68
2016-10-30T06:32:11.568Z,10.61
2016-10-30T06:33:12.246Z,10.67
2016-10-30T06:34:12.908Z,10.67
2016-10-30T06:35:13.596Z,10.57
2016-10-30T06:36:14.267Z,10.67
2016-10-30T06:37:14.946Z,10.69
2016-10-30T06:38:15.618Z,10.6
2016-10-30T06:39:16.290Z,10.69
2016-10-30T06:40:16.968Z,10.67
2016-10-30T06:41:17.630Z,10.59
2016-10-30T06:42:18.304Z,10.57
2016-10-30T06:43:18.977Z,10.64
2016-10-30T06:44:19.644Z,10.68
2016-10-30T06:45:20.307Z,10.69
2016-10-30T06:46:20.970Z,10.6
2016-10-30T06:47:21.640Z,10.67
2016-10-30T06:48:22.323Z,10.68
2016-10-30T06:49:22.988Z,10.61
2016-10-30T06:50:23.649Z,10.63
2016-10-30T06:51:24.314Z,10.68
2016-10-30T06:52:24.973Z,10.63
2016-10-30T06:53:25.642Z,10.59
2016-10-30T06:54:26.305Z,10.57
2016-10-30T06:55:26.986Z,10.64
2016-10-30T06:56:27.653Z,10.57
2016-10-30T06:57:28.315Z,10.68
2016-10-30T06:58:28.981Z,10.57
2016-10-30T06:59:29.645Z,10.63
2016-10-30T07:00:30.344Z,10.68
2016-10-30T07:01:31.010Z,10.67
2016-10-30T07:02:31.672Z,10.63
2016-10-30T07:03:32.338Z,10.67
2016-10-30T07:04:33.010Z,10.63
2016-10-30T07:05:33.693Z,10.72
2016-10-30T07:06:34.361Z,10.79
2016-10-30T07:07:35.042Z,10.82
2016-10-30T07:08:35.721Z,10.78
2016-10-30T07:09:36.387Z,10.81
2016-10-30T07:10:37.051Z,10.81
2016-10-30T07:11:37.724Z,10.79
2016-10-30T07:12:38.400Z,10.96
2016-10-30T07:13:39.078Z,10.87
2016-10-30T07:14:39.743Z,10.93
2016-10-30T07:15:40.408Z,10.97
2016-10-30T07:16:41.080Z,10.97
2016-10-30T07:17:41.751Z,11.07
2016-10-30T07:18:42.412Z,11.02
2016-10-30T07:19:43.082Z,11.08
2016-10-30T07:20:43.760Z,11.08
2016-10-30T07:21:44.430Z,11.19
2016-10-30T07:22:45.099Z,11.27
2016-10-30T07:23:45.781Z,11.29
2016-10-30T07:24:46.453Z,11.15
2016-10-30T07:25:47.123Z,11.29
2016-10-30T07:26:47.795Z,11.22
2016-10-30T07:27:48.472Z,11.22
2016-10-30T07:28:49.138Z,11.18
2016-10-30T07:29:49.817Z,11.27
2016-10-30T07:30:50.486Z,11.26
2016-10-30T07:31:51.159Z,11.22
2016-10-30T07:32:51.848Z,11.3
2016-10-30T07:33:52.519Z,11.22
2016-10-30T07:34:53.206Z,11.25
2016-10-30T07:35:53.897Z,11.19
2016-10-30T07:36:54.573Z,11.26
2016-10-30T07:37:55.247Z,11.25
2016-10-30T07:38:55.914Z,11.26
2016-10-30T07:39:56.591Z,11.26
2016-10-30T07:40:57.267Z,11.23
2016-10-30T07:41:58.004Z,11.25
2016-10-30T07:42:58.671Z,11.23
2016-10-30T07:43:59.351Z,11.27
2016-10-30T07:45:00.088Z,11.23
2016-10-30T07:46:00.709Z,11.22
2016-10-30T07:47:01.399Z,11.26
2016-10-30T07:48:02.088Z,11.22
2016-10-30T07:49:02.925Z,11.22
2016-10-30T07:50:03.621Z,11.25
2016-10-30T07:51:04.296Z,11.23
2016-10-30T07:52:04.974Z,11.23
2016-10-30T07:53:05.687Z,11.26
2016-10-30T07:54:06.365Z,11.14
2016-10-30T07:55:07.102Z,11.15
2016-10-30T07:56:07.827Z,11.17
2016-10-30T07:57:08.519Z,11.14
2016-10-30T07:58:09.191Z,11.14
2016-10-30T07:59:09.910Z,11.1
2016-10-30T08:00:10.584Z,11.14
2016-10-30T08:01:11.275Z,11.22
2016-10-30T08:02:11.951Z,11.29
2016-10-30T08:03:12.617Z,11.29
2016-10-30T08:04:13.276Z,11.23
2016-10-30T08:05:14.814Z,11.32
2016-10-30T08:06:15.498Z,11.29
2016-10-30T08:07:16.180Z,11.33
2016-10-30T08:08:16.854Z,11.4
2016-10-30T08:09:17.532Z,11.3
2016-10-30T08:10:18.196Z,11.29
2016-10-30T08:11:18.861Z,11.29
2016-10-30T08:12:19.527Z,11.27
2016-10-30T08:13:20.190Z,11.4
2016-10-30T08:14:20.863Z,11.36
2016-10-30T08:15:21.529Z,11.5
2016-10-30T08:16:22.197Z,11.48
2016-10-30T08:17:22.864Z,11.52
2016-10-30T08:18:23.528Z,11.5
2016-10-30T08:19:24.196Z,11.63
2016-10-30T08:20:24.877Z,11.62
2016-10-30T08:25:40.028Z,11.86
2016-10-30T08:26:40.694Z,12.07
2016-10-30T08:27:41.374Z,12.13
2016-10-30T08:28:42.044Z,12.17
2016-10-30T08:29:42.711Z,12.24
2016-10-30T08:30:43.387Z,12.22
2016-10-30T08:31:44.067Z,12.21
2016-10-30T08:32:44.733Z,12.28
2016-10-30T08:33:45.402Z,12.37
2016-10-30T08:34:46.078Z,12.36
2016-10-30T08:35:46.743Z,12.35
2016-10-30T08:36:47.411Z,12.25
2016-10-30T08:37:48.078Z,12.31
2016-10-30T08:38:48.755Z,12.32
2016-10-30T08:39:49.438Z,12.28
2016-10-30T08:40:50.112Z,12.32
2016-10-30T08:41:50.776Z,12.31
2016-10-30T08:42:51.458Z,12.32
2016-10-30T08:43:52.123Z,12.29
2016-10-30T08:44:52.801Z,12.27
2016-10-30T08:45:53.466Z,12.25
2016-10-30T08:46:54.146Z,12.35
2016-10-30T08:47:54.811Z,12.27
2016-10-30T08:48:55.490Z,12.27
2016-10-30T08:49:56.170Z,12.32
2016-10-30T08:50:56.839Z,12.4
2016-10-30T08:51:57.512Z,12.39
2016-10-30T08:52:58.190Z,12.42
2016-10-30T08:53:58.867Z,12.54
2016-10-30T08:54:59.534Z,12.43
2016-10-30T08:56:00.202Z,12.57
2016-10-30T08:57:00.890Z,12.55
2016-10-30T08:58:01.555Z,12.6
2016-10-30T08:59:02.231Z,12.65
2016-10-30T09:00:02.895Z,12.54
2016-10-30T09:01:03.567Z,12.53
2016-10-30T09:02:04.240Z,12.36
2016-10-30T09:03:04.916Z,12.27
2016-10-30T09:04:05.577Z,12.2
2016-10-30T09:05:06.251Z,12.04
2016-10-30T09:06:06.924Z,12.04
2016-10-30T09:07:07.611Z,12.09
2016-10-30T09:08:08.276Z,12.07
2016-10-30T09:09:08.946Z,12.03
2016-10-30T09:10:09.615Z,12.12
2016-10-30T09:11:10.293Z,12.15
2016-10-30T09:12:10.967Z,12.13
2016-10-30T09:13:11.643Z,12.18
2016-10-30T09:14:12.307Z,12.18
2016-10-30T09:15:12.980Z,12.17
2016-10-30T09:16:13.652Z,12.17
2016-10-30T09:17:15.184Z,12.15
2016-10-30T09:18:16.338Z,12.06
2016-10-30T09:19:19.542Z,12.03
2016-10-30T09:20:20.225Z,12.15
2016-10-30T09:21:20.104Z,12.17
2016-10-30T09:22:20.771Z,12.24
2016-10-30T09:23:21.503Z,12.24
2016-10-30T09:24:22.647Z,12.25
2016-10-30T09:25:23.356Z,12.4
2016-10-30T09:26:24.065Z,12.31
2016-10-30T09:27:24.747Z,12.5
2016-10-30T09:28:25.420Z,12.5
2016-10-30T09:29:26.105Z,12.4
2016-10-30T09:30:26.783Z,12.43
2016-10-30T09:31:27.453Z,12.37
2016-10-30T09:32:28.146Z,12.4
2016-10-30T09:33:28.826Z,12.39
2016-10-30T09:34:29.510Z,12.39
2016-10-30T09:35:30.177Z,12.45
2016-10-30T09:36:30.847Z,12.37
2016-10-30T09:37:31.516Z,12.42
2016-10-30T09:38:32.192Z,12.43
2016-10-30T09:39:32.862Z,12.31
2016-10-30T09:40:33.540Z,12.36
2016-10-30T09:41:34.203Z,12.42
2016-10-30T09:42:34.884Z,12.35
2016-10-30T09:43:35.552Z,12.54
2016-10-30T09:44:36.220Z,12.54
2016-10-30T09:45:36.891Z,12.55
2016-10-30T09:46:37.577Z,12.43
2016-10-30T09:47:38.255Z,12.54
2016-10-30T09:48:38.925Z,12.55
2016-10-30T09:49:39.599Z,12.5
2016-10-30T09:50:40.282Z,12.53
2016-10-30T09:51:40.977Z,12.54
2016-10-30T09:52:41.688Z,12.5
2016-10-30T09:53:42.379Z,12.62
2016-10-30T09:54:43.055Z,12.68
2016-10-30T09:55:43.760Z,12.65
2016-10-30T09:56:44.440Z,12.76
2016-10-30T09:57:45.112Z,12.73
2016-10-30T09:58:45.797Z,12.86
2016-10-30T09:59:46.472Z,12.83
2016-10-30T10:00:47.150Z,12.79
2016-10-30T10:01:47.820Z,12.73
2016-10-30T10:02:48.490Z,12.82
2016-10-30T10:03:49.170Z,12.65
2016-10-30T10:04:49.836Z,12.62
2016-10-30T10:05:51.119Z,12.67
2016-10-30T10:06:51.819Z,12.61
2016-10-30T10:07:52.492Z,12.64
2016-10-30T10:08:53.169Z,12.9
2016-10-30T10:09:53.842Z,12.86
2016-10-30T10:10:54.532Z,12.98
2016-10-30T10:11:55.190Z,13.12
2016-10-30T10:12:55.878Z,13.13
2016-10-30T10:13:56.558Z,13.19
2016-10-30T10:14:57.440Z,13.03
2016-10-30T10:15:57.929Z,13.12
2016-10-30T10:16:58.598Z,12.97
2016-10-30T10:17:59.276Z,13.01
2016-10-30T10:18:59.943Z,12.98
2016-10-30T10:20:00.613Z,13.15
2016-10-30T10:21:01.285Z,13.05
2016-10-30T10:22:01.959Z,13.19
2016-10-30T10:23:02.675Z,13.11
2016-10-30T10:24:03.351Z,13.12
2016-10-30T10:25:04.033Z,13.12
2016-10-30T10:26:04.699Z,13.05
2016-10-30T10:27:05.385Z,13.05
2016-10-30T10:28:06.070Z,12.95
2016-10-30T10:29:06.739Z,13.01
2016-10-30T10:30:07.492Z,12.86
2016-10-30T10:31:08.163Z,12.83
2016-10-30T10:32:08.848Z,12.9
2016-10-30T10:33:10.895Z,12.94
2016-10-30T10:34:11.561Z,12.87
2016-10-30T10:35:12.227Z,12.98
2016-10-30T10:36:12.897Z,13.12
2016-10-30T10:37:13.566Z,13.08
2016-10-30T10:38:14.231Z,13.12
2016-10-30T10:39:14.908Z,13.15
2016-10-30T10:40:15.592Z,12.97
2016-10-30T10:41:16.261Z,13
2016-10-30T10:42:16.926Z,13.03
2016-10-30T10:43:17.605Z,12.98
2016-10-30T10:44:18.271Z,12.98
2016-10-30T10:45:18.943Z,12.93
2016-10-30T10:46:19.618Z,12.86
2016-10-30T10:47:20.284Z,12.82
2016-10-30T10:48:20.955Z,12.91
2016-10-30T10:49:21.743Z,12.91
2016-10-30T10:50:22.419Z,12.91
2016-10-30T10:51:23.103Z,12.93
2016-10-30T10:52:23.826Z,12.93
2016-10-30T10:53:26.130Z,12.95
2016-10-30T10:54:26.380Z,12.86
2016-10-30T10:55:27.048Z,12.91
2016-10-30T10:56:27.715Z,12.91
2016-10-30T10:57:28.403Z,12.9
2016-10-30T10:58:29.173Z,12.93
2016-10-30T10:59:29.867Z,12.87
2016-10-30T11:00:30.535Z,12.79
2016-10-30T11:01:31.203Z,12.93
2016-10-30T11:02:31.893Z,12.86
2016-10-30T11:03:32.576Z,12.91
2016-10-30T11:04:33.243Z,12.91
2016-10-30T11:05:33.909Z,12.91
2016-10-30T11:06:34.865Z,12.95
2016-10-30T11:07:35.540Z,12.98
2016-10-30T11:08:36.498Z,12.97
2016-10-30T11:09:38.460Z,13.05
2016-10-30T11:10:39.138Z,13.03
2016-10-30T11:11:40.268Z,12.98
2016-10-30T11:12:40.950Z,12.95
2016-10-30T11:13:41.623Z,12.95
2016-10-30T11:14:42.292Z,13.08
2016-10-30T11:15:43.013Z,13.12
2016-10-30T11:16:43.690Z,13.11
2016-10-30T11:17:44.365Z,13.09
2016-10-30T11:18:45.036Z,13.09
2016-10-30T11:19:45.702Z,13.12
2016-10-30T11:20:46.375Z,12.97
2016-10-30T11:21:47.051Z,13.09
2016-10-30T11:22:47.725Z,12.98
2016-10-30T11:23:48.391Z,13.03
2016-10-30T11:24:49.064Z,12.97
2016-10-30T11:25:49.739Z,13
2016-10-30T11:26:50.411Z,13.01
2016-10-30T11:27:51.095Z,13.01
2016-10-30T11:28:51.792Z,13.05
2016-10-30T11:29:52.479Z,13.01
2016-10-30T11:30:53.156Z,12.98
2016-10-30T11:31:53.821Z,12.91
2016-10-30T11:32:54.498Z,12.94
2016-10-30T11:33:55.174Z,12.91
2016-10-30T11:34:55.841Z,13
2016-10-30T11:35:56.553Z,12.98
2016-10-30T11:36:57.238Z,13.08
2016-10-30T11:37:57.910Z,13.09
2016-10-30T11:38:58.628Z,13.09
2016-10-30T11:39:59.319Z,13.18
2016-10-30T11:40:59.988Z,13.08
2016-10-30T11:42:00.660Z,13.09
2016-10-30T11:43:01.329Z,13.11
2016-10-30T11:44:01.999Z,13.12
2016-10-30T11:45:02.671Z,13.12
2016-10-30T11:46:03.990Z,13.12
2016-10-30T11:47:04.116Z,13.2
2016-10-30T11:48:04.784Z,13.08
2016-10-30T11:49:05.466Z,13.16
2016-10-30T11:50:06.141Z,13.2
2016-10-30T11:51:06.810Z,13.27
2016-10-30T11:52:07.486Z,13.25
2016-10-30T11:53:08.154Z,13.28
2016-10-30T11:54:08.827Z,13.13
2016-10-30T11:55:09.503Z,13.31
2016-10-30T11:56:10.171Z,13.28
2016-10-30T11:57:10.850Z,13.27
2016-10-30T11:58:11.523Z,13.28
2016-10-30T11:59:12.186Z,13.28
2016-10-30T12:00:12.860Z,13.15
2016-10-30T12:01:13.534Z,13.22
2016-10-30T12:02:14.202Z,13.18
2016-10-30T12:03:14.873Z,13.18
2016-10-30T12:04:15.650Z,13.23
2016-10-30T12:05:16.320Z,13.15
2016-10-30T12:06:18.401Z,13.2
2016-10-30T12:07:19.408Z,13.2
2016-10-30T12:08:20.102Z,13.2
2016-10-30T12:09:20.783Z,13.27
2016-10-30T12:10:21.443Z,13.22
2016-10-30T12:11:22.153Z,13.3
2016-10-30T12:12:22.824Z,13.2
2016-10-30T12:13:23.494Z,13.23
2016-10-30T12:14:24.160Z,13.3
2016-10-30T12:15:24.839Z,13.28
2016-10-30T12:16:25.511Z,13.3
2016-10-30T12:17:26.193Z,13.3
2016-10-30T12:18:26.866Z,13.19
2016-10-30T12:19:27.570Z,13.2
2016-10-30T12:20:28.395Z,13.25
2016-10-30T12:21:29.072Z,13.25
2016-10-30T12:22:29.739Z,13.22
2016-10-30T12:23:30.415Z,13.16
2016-10-30T12:24:31.573Z,13.08
2016-10-30T12:25:32.038Z,13.13
2016-10-30T12:26:32.702Z,13.13
2016-10-30T12:27:33.368Z,13.15
2016-10-30T12:28:34.057Z,13.22
2016-10-30T12:29:34.726Z,13.3
2016-10-30T12:30:35.399Z,13.2
2016-10-30T12:31:36.075Z,13.25
2016-10-30T12:32:36.744Z,13.37
2016-10-30T12:33:37.414Z,13.41
2016-10-30T12:34:38.087Z,13.37
2016-10-30T12:35:38.753Z,13.3
2016-10-30T12:36:39.451Z,13.3
2016-10-30T12:37:40.135Z,13.35
2016-10-30T12:38:40.799Z,13.38
2016-10-30T12:39:41.478Z,13.31
2016-10-30T12:40:42.145Z,13.37
2016-10-30T12:41:42.829Z,13.37
2016-10-30T12:42:43.500Z,13.37
2016-10-30T12:43:44.175Z,13.33
2016-10-30T12:44:44.844Z,13.38
2016-10-30T12:45:45.508Z,13.31
2016-10-30T12:46:46.174Z,13.38
2016-10-30T12:47:46.853Z,13.39
2016-10-30T12:48:47.520Z,13.39
2016-10-30T12:49:48.197Z,13.38
2016-10-30T12:50:48.866Z,13.28
2016-10-30T12:51:49.526Z,13.28
2016-10-30T12:52:50.200Z,13.42
2016-10-30T12:53:50.883Z,13.28
2016-10-30T12:54:51.558Z,13.23
2016-10-30T12:55:52.229Z,13.22
2016-10-30T12:56:52.904Z,13.33
2016-10-30T12:57:53.573Z,13.39
2016-10-30T12:58:54.245Z,13.33
2016-10-30T12:59:54.920Z,13.33
2016-10-30T13:00:55.593Z,13.33
2016-10-30T13:01:56.268Z,13.35
2016-10-30T13:02:56.937Z,13.35
2016-10-30T13:03:57.613Z,13.28
2016-10-30T13:04:58.281Z,13.28
2016-10-30T13:05:58.955Z,13.37
2016-10-30T13:06:59.624Z,13.35
2016-10-30T13:08:00.298Z,13.37
2016-10-30T13:09:00.969Z,13.37